createdAt,value
2018-07-08T00:02:06.996Z,4.30
2018-07-08T00:05:11.935Z,4.77
2018-07-08T00:08:16.261Z,4.97
2018-07-08T00:11:20.616Z,4.80
2018-07-08T00:14:25.019Z,4.43
2018-07-08T00:17:29.396Z,5.17
2018-07-08T00:20:33.698Z,4.77
2018-07-08T00:23:38.190Z,4.33
2018-07-08T00:26:42.626Z,5.00
2018-07-08T00:29:47.026Z,4.93
2018-07-08T00:32:51.666Z,4.53
2018-07-08T00:35:56.033Z,4.70
2018-07-08T00:39:00.310Z,4.60
2018-07-08T00:42:04.617Z,4.70
2018-07-08T00:45:08.903Z,4.33
2018-07-08T00:48:13.320Z,4.47
2018-07-08T00:51:17.675Z,4.30
2018-07-08T00:54:22.081Z,5.75
2018-07-08T00:57:26.399Z,4.97
2018-07-08T01:00:38.956Z,4.60
2018-07-08T01:03:43.257Z,5.25
2018-07-08T01:06:47.731Z,4.67
2018-07-08T01:09:52.171Z,4.97
2018-07-08T01:12:56.624Z,5.43
2018-07-08T01:16:00.974Z,5.40
2018-07-08T01:19:06.052Z,4.67
2018-07-08T01:22:10.373Z,5.20
2018-07-08T01:25:16.882Z,5.17
2018-07-08T01:28:21.295Z,5.43
2018-07-08T01:31:27.066Z,6.10
2018-07-08T01:34:31.374Z,6.00
2018-07-08T01:37:35.935Z,5.53
2018-07-08T01:40:40.369Z,5.77
2018-07-08T01:43:44.694Z,5.50
2018-07-08T01:46:48.968Z,6.23
2018-07-08T01:49:53.498Z,5.97
2018-07-08T01:52:57.791Z,5.50
2018-07-08T01:56:02.264Z,5.37
2018-07-08T01:59:06.305Z,6.00
2018-07-08T02:02:10.585Z,6.30
2018-07-08T02:05:14.846Z,5.20
2018-07-08T02:08:19.256Z,5.93
2018-07-08T02:11:24.665Z,5.30
2018-07-08T02:14:29.830Z,5.90
2018-07-08T02:17:34.390Z,5.47
2018-07-08T02:20:38.996Z,5.63
2018-07-08T02:23:43.300Z,5.75
2018-07-08T02:26:49.231Z,6.33
2018-07-08T02:29:53.769Z,5.57
2018-07-08T02:32:58.082Z,5.23
2018-07-08T02:36:02.721Z,5.50
2018-07-08T02:39:08.219Z,5.43
2018-07-08T02:42:12.693Z,5.73
2018-07-08T02:45:17.581Z,5.90
2018-07-08T02:48:21.957Z,5.60
2018-07-08T02:51:26.978Z,5.53
2018-07-08T02:54:31.428Z,5.60
2018-07-08T02:57:35.742Z,5.70
2018-07-08T03:00:40.090Z,5.83
2018-07-08T03:03:45.156Z,5.60
2018-07-08T03:06:49.844Z,5.53
2018-07-08T03:09:54.183Z,5.57
2018-07-08T03:12:58.509Z,5.70
2018-07-08T03:16:02.866Z,5.67
2018-07-08T03:19:07.254Z,5.87
2018-07-08T03:22:11.727Z,5.70
2018-07-08T03:25:16.423Z,5.73
2018-07-08T03:28:20.746Z,5.43
2018-07-08T03:31:25.162Z,5.90
2018-07-08T03:34:29.533Z,5.93
2018-07-08T03:37:33.822Z,5.77
2018-07-08T03:40:38.204Z,6.33
2018-07-08T03:43:42.523Z,6.10
2018-07-08T03:46:46.847Z,6.53
2018-07-08T03:49:51.457Z,5.67
2018-07-08T03:52:55.942Z,5.77
2018-07-08T03:56:00.225Z,5.77
2018-07-08T03:59:04.823Z,5.73
2018-07-08T04:02:09.148Z,6.40
2018-07-08T04:05:13.800Z,6.13
2018-07-08T04:08:18.319Z,6.30
2018-07-08T04:11:22.803Z,5.90
2018-07-08T04:14:28.201Z,5.37
2018-07-08T04:17:33.743Z,5.20
2018-07-08T04:20:39.101Z,5.70
2018-07-08T04:23:43.562Z,5.80
2018-07-08T04:26:48.098Z,5.37
2018-07-08T04:29:53.221Z,5.17
2018-07-08T04:32:58.481Z,5.23
2018-07-08T04:36:03.088Z,5.93
2018-07-08T04:39:08.728Z,4.78
2018-07-08T04:42:13.420Z,5.30
2018-07-08T04:45:18.208Z,5.57
2018-07-08T04:48:23.133Z,5.70
2018-07-08T04:51:27.840Z,4.97
2018-07-08T04:54:32.492Z,5.10
2018-07-08T04:57:37.334Z,5.50
2018-07-08T05:00:42.220Z,5.43
2018-07-08T05:03:46.846Z,5.47
2018-07-08T05:06:51.333Z,5.73
2018-07-08T05:09:57.512Z,5.27
2018-07-08T05:13:01.980Z,5.43
2018-07-08T05:16:06.688Z,5.30
2018-07-08T05:19:11.295Z,5.13
2018-07-08T05:22:15.994Z,5.40
2018-07-08T05:25:20.329Z,5.50
2018-07-08T05:28:24.745Z,4.90
2018-07-08T05:31:29.055Z,5.10
2018-07-08T05:34:34.260Z,5.20
2018-07-08T05:37:38.789Z,5.53
2018-07-08T05:40:43.133Z,5.03
2018-07-08T05:43:47.561Z,5.03
2018-07-08T05:46:51.857Z,5.17
2018-07-08T05:49:56.990Z,5.03
2018-07-08T05:53:01.395Z,5.70
2018-07-08T05:56:06.386Z,5.20
2018-07-08T05:59:10.923Z,5.20
2018-07-08T06:02:15.789Z,5.13
2018-07-08T06:05:20.214Z,5.37
2018-07-08T06:08:24.708Z,5.27
2018-07-08T06:11:29.210Z,5.03
2018-07-08T06:14:33.615Z,5.60
2018-07-08T06:17:38.240Z,5.07
2018-07-08T06:20:42.631Z,4.60
2018-07-08T06:23:46.939Z,4.83
2018-07-08T06:26:51.245Z,5.20
2018-07-08T06:29:55.572Z,4.97
2018-07-08T06:33:00.074Z,4.83
2018-07-08T06:36:04.642Z,4.90
2018-07-08T06:39:09.398Z,4.67
2018-07-08T06:42:13.716Z,4.67
2018-07-08T06:45:17.997Z,4.77
2018-07-08T06:48:22.843Z,5.10
2018-07-08T06:51:27.149Z,5.10
2018-07-08T06:54:31.220Z,4.60
2018-07-08T06:57:35.696Z,4.90
2018-07-08T07:00:39.831Z,4.80
2018-07-08T07:03:44.350Z,5.20
2018-07-08T07:06:48.948Z,4.30
2018-07-08T07:09:53.400Z,4.53
2018-07-08T07:12:57.727Z,4.20
2018-07-08T07:16:02.313Z,3.83
2018-07-08T07:19:07.392Z,4.27
2018-07-08T07:22:11.697Z,4.30
2018-07-08T07:25:16.909Z,4.03
2018-07-08T07:28:21.405Z,4.00
2018-07-08T07:31:27.908Z,3.90
2018-07-08T07:34:32.470Z,3.83
2018-07-08T07:37:36.905Z,3.93
2018-07-08T07:40:41.333Z,3.10
2018-07-08T07:43:45.688Z,3.40
2018-07-08T07:46:50.258Z,4.00
2018-07-08T07:49:54.576Z,4.00
2018-07-08T07:52:59.012Z,3.33
2018-07-08T07:56:03.409Z,3.07
2018-07-08T07:59:07.894Z,3.90
2018-07-08T08:02:12.336Z,3.23
2018-07-08T08:05:16.845Z,3.70
2018-07-08T08:08:21.262Z,3.83
2018-07-08T08:11:26.826Z,4.60
2018-07-08T08:14:31.729Z,4.43
2018-07-08T08:17:36.465Z,4.40
2018-07-08T08:20:40.956Z,4.47
2018-07-08T08:23:45.348Z,3.97
2018-07-08T08:26:50.241Z,5.00
2018-07-08T08:29:55.573Z,4.47
2018-07-08T08:32:59.963Z,4.30
2018-07-08T08:36:04.287Z,4.13
2018-07-08T08:39:08.994Z,4.33
2018-07-08T08:42:13.796Z,4.17
2018-07-08T08:45:19.573Z,4.57
2018-07-08T08:48:24.142Z,4.33
2018-07-08T08:51:28.784Z,4.53
2018-07-08T08:54:33.155Z,4.47
2018-07-08T08:57:37.902Z,4.10
2018-07-08T09:00:44.920Z,4.43
2018-07-08T09:03:49.306Z,4.10
2018-07-08T09:06:54.212Z,4.23
2018-07-08T09:10:08.510Z,4.63
2018-07-08T09:13:12.997Z,4.77
2018-07-08T09:16:20.457Z,4.40
2018-07-08T09:19:24.956Z,3.90
2018-07-08T09:22:29.465Z,4.50
2018-07-08T09:25:34.138Z,3.93
2018-07-08T09:28:38.432Z,4.00
2018-07-08T09:31:42.884Z,4.13
2018-07-08T09:34:47.232Z,3.53
2018-07-08T09:37:51.586Z,3.70
2018-07-08T09:40:55.918Z,4.13
2018-07-08T09:44:00.340Z,4.17
2018-07-08T09:47:04.844Z,4.47
2018-07-08T09:50:09.177Z,4.10
2018-07-08T09:53:13.877Z,4.57
2018-07-08T09:56:18.762Z,3.90
2018-07-08T09:59:24.957Z,4.23
2018-07-08T10:02:29.344Z,4.63
2018-07-08T10:05:34.184Z,4.40
2018-07-08T10:08:39.359Z,4.30
2018-07-08T10:11:43.834Z,4.50
2018-07-08T10:14:48.311Z,3.97
2018-07-08T10:17:52.954Z,4.00
2018-07-08T10:20:57.749Z,4.03
2018-07-08T10:24:02.340Z,3.60
2018-07-08T10:27:25.025Z,4.10
2018-07-08T10:30:29.720Z,4.20
2018-07-08T10:33:49.701Z,3.87
2018-07-08T10:36:54.114Z,3.67
2018-07-08T10:39:58.541Z,4.03
2018-07-08T10:43:03.869Z,3.60
2018-07-08T10:46:08.137Z,3.80
2018-07-08T10:49:12.442Z,3.43
2018-07-08T10:52:17.154Z,3.37
2018-07-08T10:55:21.262Z,3.63
2018-07-08T10:58:25.524Z,4.25
2018-07-08T11:01:30.147Z,3.80
2018-07-08T11:04:35.280Z,3.70
2018-07-08T11:07:40.780Z,3.90
2018-07-08T11:10:45.600Z,3.70
2018-07-08T11:13:49.953Z,3.40
2018-07-08T11:16:54.258Z,3.67
2018-07-08T11:19:58.753Z,3.70
2018-07-08T11:23:03.052Z,3.67
2018-07-08T11:26:07.790Z,3.70
2018-07-08T11:29:12.105Z,4.17
2018-07-08T11:32:16.404Z,3.00
2018-07-08T11:35:20.685Z,3.17
2018-07-08T11:38:24.964Z,2.73
2018-07-08T11:41:29.529Z,3.27
2018-07-08T11:44:33.808Z,3.40
2018-07-08T11:47:38.464Z,3.50
2018-07-08T11:50:42.793Z,3.47
2018-07-08T11:53:47.264Z,2.83
2018-07-08T11:56:51.624Z,3.07
2018-07-08T11:59:56.012Z,3.50
2018-07-08T12:03:00.097Z,2.90
2018-07-08T12:06:04.439Z,3.10
2018-07-08T12:09:09.045Z,2.93
2018-07-08T12:12:14.404Z,2.90
2018-07-08T12:15:18.704Z,3.13
2018-07-08T12:18:23.101Z,3.00
2018-07-08T12:21:28.095Z,3.03
2018-07-08T12:24:32.483Z,3.00
2018-07-08T12:27:36.962Z,2.50
2018-07-08T12:30:41.309Z,2.80
2018-07-08T12:33:45.678Z,2.93
2018-07-08T12:36:50.073Z,2.73
2018-07-08T12:39:55.518Z,3.07
2018-07-08T12:42:59.851Z,2.40
2018-07-08T12:46:04.395Z,2.70
2018-07-08T12:49:08.857Z,3.00
2018-07-08T12:52:14.379Z,2.60
2018-07-08T12:55:18.747Z,3.30
2018-07-08T12:58:23.083Z,2.43
2018-07-08T13:01:27.696Z,2.43
2018-07-08T13:04:32.034Z,2.60
2018-07-08T13:07:36.412Z,2.70
2018-07-08T13:10:41.452Z,2.23
2018-07-08T13:13:45.804Z,2.27
2018-07-08T13:16:50.181Z,2.60
2018-07-08T13:19:57.256Z,2.57
2018-07-08T13:23:01.558Z,2.17
2018-07-08T13:26:05.980Z,2.50
2018-07-08T13:29:10.445Z,2.40
2018-07-08T13:32:15.169Z,2.10
2018-07-08T13:35:19.413Z,2.33
2018-07-08T13:38:23.803Z,2.30
2018-07-08T13:41:28.364Z,2.10
2018-07-08T13:44:32.626Z,2.20
2018-07-08T13:47:36.954Z,2.27
2018-07-08T13:50:41.733Z,1.90
2018-07-08T13:53:46.045Z,1.80
2018-07-08T13:56:50.642Z,1.97
2018-07-08T13:59:54.935Z,1.60
2018-07-08T14:02:59.208Z,1.60
2018-07-08T14:06:03.577Z,1.97
2018-07-08T14:09:08.443Z,2.13
2018-07-08T14:12:12.730Z,1.87
2018-07-08T14:15:17.034Z,1.73
2018-07-08T14:18:21.346Z,1.67
2018-07-08T14:21:25.889Z,1.57
2018-07-08T14:24:30.214Z,1.47
2018-07-08T14:27:34.536Z,1.70
2018-07-08T14:30:38.809Z,1.67
2018-07-08T14:33:43.085Z,1.60
2018-07-08T14:36:48.051Z,1.30
2018-07-08T14:39:52.341Z,1.37
2018-07-08T14:42:56.673Z,1.60
2018-07-08T14:46:02.132Z,1.23
2018-07-08T14:49:06.422Z,1.60
2018-07-08T14:52:10.672Z,1.67
2018-07-08T14:55:14.996Z,1.40
2018-07-08T14:58:19.314Z,1.77
2018-07-08T15:01:24.034Z,1.87
2018-07-08T15:04:28.575Z,1.73
2018-07-08T15:07:32.942Z,1.40
2018-07-08T15:10:37.263Z,1.33
2018-07-08T15:13:41.633Z,1.50
2018-07-08T15:16:46.071Z,1.60
2018-07-08T15:19:50.473Z,1.67
2018-07-08T15:22:54.986Z,1.53
2018-07-08T15:25:59.348Z,1.37
2018-07-08T15:29:03.676Z,1.40
2018-07-08T15:32:07.934Z,1.20
2018-07-08T15:35:12.430Z,1.57
2018-07-08T15:38:16.734Z,1.40
2018-07-08T15:41:21.031Z,1.07
2018-07-08T15:44:25.364Z,1.27
2018-07-08T15:47:29.679Z,1.30
2018-07-08T15:50:33.965Z,1.30
2018-07-08T15:53:39.023Z,1.90
2018-07-08T15:56:43.301Z,1.27
2018-07-08T15:59:47.660Z,1.80
2018-07-08T16:02:52.006Z,1.27
2018-07-08T16:05:56.315Z,1.20
2018-07-08T16:09:00.731Z,1.20
2018-07-08T16:12:05.279Z,1.20
2018-07-08T16:15:09.863Z,1.20
2018-07-08T16:18:14.350Z,1.07
2018-07-08T16:21:18.609Z,1.30
2018-07-08T16:24:23.039Z,1.53
2018-07-08T16:27:27.409Z,1.10
2018-07-08T16:30:31.789Z,1.10
2018-07-08T16:33:36.323Z,1.00
2018-07-08T16:36:40.860Z,1.00
2018-07-08T16:39:45.215Z,1.10
2018-07-08T16:42:49.516Z,1.13
2018-07-08T16:45:53.885Z,1.17
2018-07-08T16:48:58.244Z,1.07
2018-07-08T16:52:02.680Z,1.10
2018-07-08T16:55:07.079Z,1.10
2018-07-08T16:58:11.541Z,1.10
2018-07-08T17:01:15.856Z,1.00
2018-07-08T17:04:20.139Z,1.20
2018-07-08T17:07:24.477Z,1.10
2018-07-08T17:10:28.853Z,1.00
2018-07-08T17:13:33.998Z,1.17
2018-07-08T17:16:38.422Z,1.00
2018-07-08T17:19:43.534Z,1.07
2018-07-08T17:22:48.634Z,0.87
2018-07-08T17:25:53.338Z,1.17
2018-07-08T17:28:57.641Z,0.80
2018-07-08T17:32:02.342Z,0.70
2018-07-08T17:35:07.065Z,0.80
2018-07-08T17:38:11.380Z,0.90
2018-07-08T17:41:15.640Z,0.93
2018-07-08T17:44:20.292Z,1.10
2018-07-08T17:47:24.796Z,1.00
2018-07-08T17:50:29.243Z,1.30
2018-07-08T17:53:33.848Z,1.20
2018-07-08T17:56:38.831Z,0.93
2018-07-08T17:59:43.293Z,1.20
2018-07-08T18:02:47.737Z,0.87
2018-07-08T18:05:52.328Z,0.90
2018-07-08T18:08:56.735Z,0.90
2018-07-08T18:12:01.289Z,0.80
2018-07-08T18:15:05.893Z,0.90
2018-07-08T18:18:10.361Z,0.88
2018-07-08T18:21:16.223Z,0.90
2018-07-08T18:24:20.786Z,0.90
2018-07-08T18:27:25.152Z,0.93
2018-07-08T18:30:29.642Z,1.00
2018-07-08T18:33:34.086Z,0.90
2018-07-08T18:36:39.008Z,0.80
2018-07-08T18:39:44.711Z,0.80
2018-07-08T18:42:49.242Z,0.90
2018-07-08T18:45:54.132Z,0.73
2018-07-08T18:48:58.828Z,1.10
2018-07-08T18:52:03.236Z,0.60
2018-07-08T18:55:07.996Z,0.77
2018-07-08T18:58:12.416Z,0.80
2018-07-08T19:01:17.633Z,0.70
2018-07-08T19:04:22.075Z,0.97
2018-07-08T19:07:26.556Z,0.80
2018-07-08T19:10:31.057Z,0.83
2018-07-08T19:13:35.709Z,0.60
2018-07-08T19:16:41.117Z,0.90
2018-07-08T19:19:45.561Z,1.00
2018-07-08T19:22:50.281Z,1.80
2018-07-08T19:25:54.646Z,1.10
2018-07-08T19:28:59.070Z,0.90
2018-07-08T19:32:03.734Z,0.90
2018-07-08T19:35:08.023Z,0.90
2018-07-08T19:38:12.384Z,0.80
2018-07-08T19:41:16.764Z,0.80
2018-07-08T19:44:21.986Z,1.23
2018-07-08T19:47:26.416Z,1.07
2018-07-08T19:50:30.962Z,1.10
2018-07-08T19:53:35.337Z,1.17
2018-07-08T19:56:40.493Z,1.50
2018-07-08T19:59:45.680Z,1.60
2018-07-08T20:02:50.143Z,1.53
2018-07-08T20:05:54.637Z,1.60
2018-07-08T20:08:59.086Z,1.30
2018-07-08T20:12:03.386Z,1.40
2018-07-08T20:15:07.698Z,1.40
2018-07-08T20:18:12.224Z,1.90
2018-07-08T20:21:16.848Z,1.90
2018-07-08T20:24:20.978Z,1.40
2018-07-08T20:27:25.269Z,1.50
2018-07-08T20:30:29.652Z,1.50
2018-07-08T20:33:33.999Z,1.30
2018-07-08T20:36:38.533Z,1.63
2018-07-08T20:39:42.922Z,1.57
2018-07-08T20:42:47.291Z,2.80
2018-07-08T20:45:51.692Z,2.97
2018-07-08T20:48:56.729Z,2.03
2018-07-08T20:52:01.266Z,2.33
2018-07-08T20:55:05.577Z,1.63
2018-07-08T20:58:09.885Z,2.10
2018-07-08T21:01:14.156Z,1.57
2018-07-08T21:04:18.444Z,2.00
2018-07-08T21:07:22.761Z,1.80
2018-07-08T21:10:27.085Z,1.57
2018-07-08T21:13:31.656Z,1.60
2018-07-08T21:16:35.960Z,1.80
2018-07-08T21:19:40.431Z,1.83
2018-07-08T21:22:44.695Z,1.67
2018-07-08T21:25:48.996Z,1.63
2018-07-08T21:28:53.363Z,1.67
2018-07-08T21:31:57.632Z,2.23
2018-07-08T21:35:01.941Z,1.90
2018-07-08T21:38:06.817Z,1.70
2018-07-08T21:41:11.172Z,1.70
2018-07-08T21:44:15.993Z,1.50
2018-07-08T21:47:21.502Z,1.97
2018-07-08T21:50:25.785Z,1.63
2018-07-08T21:53:30.291Z,1.70
2018-07-08T21:56:34.599Z,2.20
2018-07-08T21:59:38.923Z,2.03
2018-07-08T22:02:45.940Z,1.60
2018-07-08T22:05:50.241Z,1.60
2018-07-08T22:08:54.755Z,2.03
2018-07-08T22:11:59.129Z,2.27
2018-07-08T22:15:03.482Z,1.90
2018-07-08T22:18:07.797Z,2.47
2018-07-08T22:21:12.649Z,3.07
2018-07-08T22:24:17.390Z,3.70
2018-07-08T22:27:24.745Z,4.00
2018-07-08T22:30:29.430Z,2.20
2018-07-08T22:33:33.924Z,2.33
2018-07-08T22:36:38.405Z,2.03
2018-07-08T22:39:42.725Z,2.30
2018-07-08T22:42:47.245Z,1.90
2018-07-08T22:45:51.800Z,2.60
2018-07-08T22:48:56.186Z,2.23
2018-07-08T22:52:00.749Z,2.07
2018-07-08T22:55:05.558Z,2.17
2018-07-08T22:58:09.867Z,2.20
2018-07-08T23:01:31.637Z,2.27
2018-07-08T23:04:35.918Z,1.80
2018-07-08T23:07:41.125Z,1.90
2018-07-08T23:10:45.424Z,2.20
2018-07-08T23:13:50.511Z,2.07
2018-07-08T23:16:54.896Z,2.37
2018-07-08T23:19:59.521Z,2.13
2018-07-08T23:23:03.646Z,1.80
2018-07-08T23:26:08.103Z,2.17
2018-07-08T23:29:12.456Z,1.90
2018-07-08T23:32:16.825Z,2.20
2018-07-08T23:35:21.195Z,2.10
2018-07-08T23:38:25.637Z,2.60
2018-07-08T23:41:30.282Z,2.33
2018-07-08T23:44:34.709Z,1.87
2018-07-08T23:47:39.048Z,3.70
2018-07-08T23:50:43.320Z,3.33
2018-07-08T23:53:48.525Z,2.87
2018-07-08T23:56:52.845Z,2.27
2018-07-08T23:59:57.204Z,2.20
